sensor_id;sensor_type;location;lat;lon;timestamp;temperature;humidity
65584;DHT22;70321;43.592;1.456;2023-06-01T00:01:07;18.95;85.08
65584;DHT22;70321;43.592;1.456;2023-06-01T00:03:33;18.94;85.01
65584;DHT22;70321;43.592;1.456;2023-06-01T00:05:59;18.94;85.11
65584;DHT22;70321;43.592;1.456;2023-06-01T00:08:25;18.97;85.08
65584;DHT22;70321;43.592;1.456;2023-06-01T00:10:50;18.92;85.15
65584;DHT22;70321;43.592;1.456;2023-06-01T00:13:16;18.97;85.08
65584;DHT22;70321;43.592;1.456;2023-06-01T00:15:42;18.92;84.98
65584;DHT22;70321;43.592;1.456;2023-06-01T00:18:08;18.90;85.00
65584;DHT22;70321;43.592;1.456;2023-06-01T00:20:38;18.90;85.10
65584;DHT22;70321;43.592;1.456;2023-06-01T00:23:04;18.91;85.15
65584;DHT22;70321;43.592;1.456;2023-06-01T00:25:29;18.94;85.04
65584;DHT22;70321;43.592;1.456;2023-06-01T00:27:54;18.97;85.13
65584;DHT22;70321;43.592;1.456;2023-06-01T00:30:21;18.95;85.09
65584;DHT22;70321;43.592;1.456;2023-06-01T00:32:46;18.97;85.02
65584;DHT22;70321;43.592;1.456;2023-06-01T00:35:11;18.97;85.00
65584;DHT22;70321;43.592;1.456;2023-06-01T00:37:37;18.98;85.02
65584;DHT22;70321;43.592;1.456;2023-06-01T00:40:02;18.97;85.00
65584;DHT22;70321;43.592;1.456;2023-06-01T00:42:28;18.94;84.92
65584;DHT22;70321;43.592;1.456;2023-06-01T00:44:54;18.91;84.90
65584;DHT22;70321;43.592;1.456;2023-06-01T00:47:20;18.92;84.95
65584;DHT22;70321;43.592;1.456;2023-06-01T00:49:46;18.97;84.94
65584;DHT22;70321;43.592;1.456;2023-06-01T00:52:12;18.87;84.92
65584;DHT22;70321;43.592;1.456;2023-06-01T00:54:37;18.90;85.06
65584;DHT22;70321;43.592;1.456;2023-06-01T00:57:03;18.91;85.07
65584;DHT22;70321;43.592;1.456;2023-06-01T00:59:29;18.92;85.16
65584;DHT22;70321;43.592;1.456;2023-06-01T01:01:54;18.97;85.28
65584;DHT22;70321;43.592;1.456;2023-06-01T01:04:20;19.01;85.37
65584;DHT22;70321;43.592;1.456;2023-06-01T01:18:13;19.01;85.40
65584;DHT22;70321;43.592;1.456;2023-06-01T01:20:44;18.97;85.52
65584;DHT22;70321;43.592;1.456;2023-06-01T01:23:48;19.00;85.36
65584;DHT22;70321;43.592;1.456;2023-06-01T01:28:54;18.94;85.23
65584;DHT22;70321;43.592;1.456;2023-06-01T01:31:24;18.92;85.21
65584;DHT22;70321;43.592;1.456;2023-06-01T01:33:51;18.80;85.17
65584;DHT22;70321;43.592;1.456;2023-06-01T01:36:18;18.81;85.28
65584;DHT22;70321;43.592;1.456;2023-06-01T01:38:44;18.81;85.35
65584;DHT22;70321;43.592;1.456;2023-06-01T01:41:09;18.72;85.05
65584;DHT22;70321;43.592;1.456;2023-06-01T01:43:35;18.72;85.34
65584;DHT22;70321;43.592;1.456;2023-06-01T01:46:14;18.75;85.40
65584;DHT22;70321;43.592;1.456;2023-06-01T01:48:51;18.75;85.27
65584;DHT22;70321;43.592;1.456;2023-06-01T01:51:22;18.70;85.19
65584;DHT22;70321;43.592;1.456;2023-06-01T01:53:51;18.72;85.43
65584;DHT22;70321;43.592;1.456;2023-06-01T01:56:18;18.72;85.53
65584;DHT22;70321;43.592;1.456;2023-06-01T01:58:45;18.71;85.37
65584;DHT22;70321;43.592;1.456;2023-06-01T02:01:12;18.74;85.28
65584;DHT22;70321;43.592;1.456;2023-06-01T02:03:37;18.75;85.22
65584;DHT22;70321;43.592;1.456;2023-06-01T02:06:03;18.71;85.37
65584;DHT22;70321;43.592;1.456;2023-06-01T02:08:28;18.72;85.13
65584;DHT22;70321;43.592;1.456;2023-06-01T02:10:54;18.70;85.23
65584;DHT22;70321;43.592;1.456;2023-06-01T02:13:19;18.74;85.26
65584;DHT22;70321;43.592;1.456;2023-06-01T02:15:45;18.71;85.06
65584;DHT22;70321;43.592;1.456;2023-06-01T02:18:10;18.71;85.07
65584;DHT22;70321;43.592;1.456;2023-06-01T02:20:36;18.67;85.13
65584;DHT22;70321;43.592;1.456;2023-06-01T02:23:01;18.67;85.08
65584;DHT22;70321;43.592;1.456;2023-06-01T02:25:27;18.67;85.07
65584;DHT22;70321;43.592;1.456;2023-06-01T02:27:52;18.65;84.80
65584;DHT22;70321;43.592;1.456;2023-06-01T02:30:18;18.63;84.95
65584;DHT22;70321;43.592;1.456;2023-06-01T02:32:43;18.61;85.07
65584;DHT22;70321;43.592;1.456;2023-06-01T02:35:14;18.63;85.18
65584;DHT22;70321;43.592;1.456;2023-06-01T02:37:39;18.61;85.03
65584;DHT22;70321;43.592;1.456;2023-06-01T02:40:06;18.50;84.76
65584;DHT22;70321;43.592;1.456;2023-06-01T02:42:36;18.46;84.69
65584;DHT22;70321;43.592;1.456;2023-06-01T02:45:02;18.29;84.50
65584;DHT22;70321;43.592;1.456;2023-06-01T02:47:29;18.17;85.39
65584;DHT22;70321;43.592;1.456;2023-06-01T02:49:54;18.12;85.10
65584;DHT22;70321;43.592;1.456;2023-06-01T02:52:20;18.05;85.51
65584;DHT22;70321;43.592;1.456;2023-06-01T02:54:45;17.95;84.89
65584;DHT22;70321;43.592;1.456;2023-06-01T02:57:11;17.86;85.29
65584;DHT22;70321;43.592;1.456;2023-06-01T02:59:36;17.81;84.57
65584;DHT22;70321;43.592;1.456;2023-06-01T03:02:01;17.79;84.78
65584;DHT22;70321;43.592;1.456;2023-06-01T03:04:27;17.82;84.40
65584;DHT22;70321;43.592;1.456;2023-06-01T03:06:54;17.78;84.16
65584;DHT22;70321;43.592;1.456;2023-06-01T03:09:19;17.73;84.43
65584;DHT22;70321;43.592;1.456;2023-06-01T03:11:45;17.71;84.22
65584;DHT22;70321;43.592;1.456;2023-06-01T03:14:10;17.68;84.20
65584;DHT22;70321;43.592;1.456;2023-06-01T03:16:35;17.71;84.36
65584;DHT22;70321;43.592;1.456;2023-06-01T03:19:01;17.73;84.28
65584;DHT22;70321;43.592;1.456;2023-06-01T03:21:27;17.69;83.82
65584;DHT22;70321;43.592;1.456;2023-06-01T03:23:52;17.69;84.07
65584;DHT22;70321;43.592;1.456;2023-06-01T03:26:18;17.68;83.98
65584;DHT22;70321;43.592;1.456;2023-06-01T03:28:46;17.68;84.07
65584;DHT22;70321;43.592;1.456;2023-06-01T03:31:11;17.69;84.14
65584;DHT22;70321;43.592;1.456;2023-06-01T03:33:37;17.73;84.21
65584;DHT22;70321;43.592;1.456;2023-06-01T03:36:03;17.75;84.19
65584;DHT22;70321;43.592;1.456;2023-06-01T03:38:30;17.73;83.94
65584;DHT22;70321;43.592;1.456;2023-06-01T03:40:55;17.71;83.96
65584;DHT22;70321;43.592;1.456;2023-06-01T03:43:21;17.73;84.22
65584;DHT22;70321;43.592;1.456;2023-06-01T03:45:49;17.78;84.21
65584;DHT22;70321;43.592;1.456;2023-06-01T03:48:15;17.83;84.00
65584;DHT22;70321;43.592;1.456;2023-06-01T03:50:41;17.86;84.14
65584;DHT22;70321;43.592;1.456;2023-06-01T03:53:06;17.85;84.11
65584;DHT22;70321;43.592;1.456;2023-06-01T03:55:31;17.90;84.29
65584;DHT22;70321;43.592;1.456;2023-06-01T03:57:57;17.96;84.15
65584;DHT22;70321;43.592;1.456;2023-06-01T04:00:23;18.03;84.44
65584;DHT22;70321;43.592;1.456;2023-06-01T04:02:57;18.09;84.37
65584;DHT22;70321;43.592;1.456;2023-06-01T04:05:24;18.07;84.29
65584;DHT22;70321;43.592;1.456;2023-06-01T04:07:51;18.14;84.51
65584;DHT22;70321;43.592;1.456;2023-06-01T04:10:17;18.14;84.51
65584;DHT22;70321;43.592;1.456;2023-06-01T04:12:44;18.12;84.33
65584;DHT22;70321;43.592;1.456;2023-06-01T04:15:10;18.06;84.12
65584;DHT22;70321;43.592;1.456;2023-06-01T04:17:38;18.00;84.08
65584;DHT22;70321;43.592;1.456;2023-06-01T04:20:05;18.06;83.81
65584;DHT22;70321;43.592;1.456;2023-06-01T04:22:35;18.06;83.77
65584;DHT22;70321;43.592;1.456;2023-06-01T04:25:00;18.02;83.98
65584;DHT22;70321;43.592;1.456;2023-06-01T04:27:26;18.07;84.24
65584;DHT22;70321;43.592;1.456;2023-06-01T04:29:52;18.13;84.45
65584;DHT22;70321;43.592;1.456;2023-06-01T04:32:18;18.16;84.45
65584;DHT22;70321;43.592;1.456;2023-06-01T04:34:50;18.20;84.50
65584;DHT22;70321;43.592;1.456;2023-06-01T04:37:16;18.20;84.40
65584;DHT22;70321;43.592;1.456;2023-06-01T04:39:45;18.16;83.46
65584;DHT22;70321;43.592;1.456;2023-06-01T04:42:14;18.13;83.48
65584;DHT22;70321;43.592;1.456;2023-06-01T04:44:44;18.12;83.69
65584;DHT22;70321;43.592;1.456;2023-06-01T04:47:15;18.12;83.07
65584;DHT22;70321;43.592;1.456;2023-06-01T04:49:42;18.09;83.48
65584;DHT22;70321;43.592;1.456;2023-06-01T04:52:08;18.05;83.42
65584;DHT22;70321;43.592;1.456;2023-06-01T04:54:36;18.02;83.21
65584;DHT22;70321;43.592;1.456;2023-06-01T04:57:01;17.95;83.70
65584;DHT22;70321;43.592;1.456;2023-06-01T04:59:27;17.95;83.95
65584;DHT22;70321;43.592;1.456;2023-06-01T05:01:52;17.93;83.72
65584;DHT22;70321;43.592;1.456;2023-06-01T05:04:18;17.93;83.92
65584;DHT22;70321;43.592;1.456;2023-06-01T05:06:43;17.89;84.25
65584;DHT22;70321;43.592;1.456;2023-06-01T05:09:08;17.92;84.08
65584;DHT22;70321;43.592;1.456;2023-06-01T05:11:34;17.95;84.02
65584;DHT22;70321;43.592;1.456;2023-06-01T05:13:59;17.93;84.57
65584;DHT22;70321;43.592;1.456;2023-06-01T05:16:27;17.97;84.50
65584;DHT22;70321;43.592;1.456;2023-06-01T05:18:54;18.00;84.42
65584;DHT22;70321;43.592;1.456;2023-06-01T05:21:20;18.02;84.70
65584;DHT22;70321;43.592;1.456;2023-06-01T05:23:45;18.06;84.86
65584;DHT22;70321;43.592;1.456;2023-06-01T05:26:11;18.10;84.90
65584;DHT22;70321;43.592;1.456;2023-06-01T05:28:36;18.12;84.81
65584;DHT22;70321;43.592;1.456;2023-06-01T05:31:02;18.16;85.10
65584;DHT22;70321;43.592;1.456;2023-06-01T05:33:28;18.14;85.02
65584;DHT22;70321;43.592;1.456;2023-06-01T05:35:53;18.13;84.86
65584;DHT22;70321;43.592;1.456;2023-06-01T05:38:19;18.10;84.17
65584;DHT22;70321;43.592;1.456;2023-06-01T05:40:45;18.10;84.72
65584;DHT22;70321;43.592;1.456;2023-06-01T05:43:10;18.13;84.76
65584;DHT22;70321;43.592;1.456;2023-06-01T05:45:36;18.12;84.35
65584;DHT22;70321;43.592;1.456;2023-06-01T05:48:02;18.16;84.67
65584;DHT22;70321;43.592;1.456;2023-06-01T05:50:27;18.22;84.82
65584;DHT22;70321;43.592;1.456;2023-06-01T05:52:52;18.29;85.07
65584;DHT22;70321;43.592;1.456;2023-06-01T05:55:18;18.25;84.56
65584;DHT22;70321;43.592;1.456;2023-06-01T05:57:44;18.16;83.76
65584;DHT22;70321;43.592;1.456;2023-06-01T06:00:11;18.20;84.04
65584;DHT22;70321;43.592;1.456;2023-06-01T06:02:39;18.22;83.88
65584;DHT22;70321;43.592;1.456;2023-06-01T06:05:05;18.19;84.05
65584;DHT22;70321;43.592;1.456;2023-06-01T06:07:31;18.25;84.23
65584;DHT22;70321;43.592;1.456;2023-06-01T06:09:57;18.13;84.63
65584;DHT22;70321;43.592;1.456;2023-06-01T06:12:22;18.19;84.46
65584;DHT22;70321;43.592;1.456;2023-06-01T06:14:48;18.20;84.53
65584;DHT22;70321;43.592;1.456;2023-06-01T06:17:14;18.14;84.63
65584;DHT22;70321;43.592;1.456;2023-06-01T06:19:40;18.22;85.14
65584;DHT22;70321;43.592;1.456;2023-06-01T06:22:08;18.30;85.14
65584;DHT22;70321;43.592;1.456;2023-06-01T06:24:34;18.27;84.95
65584;DHT22;70321;43.592;1.456;2023-06-01T06:27:00;18.32;84.72
65584;DHT22;70321;43.592;1.456;2023-06-01T06:29:25;18.33;84.81
65584;DHT22;70321;43.592;1.456;2023-06-01T06:31:51;18.36;84.43
65584;DHT22;70321;43.592;1.456;2023-06-01T06:34:16;18.47;84.47
65584;DHT22;70321;43.592;1.456;2023-06-01T06:36:41;18.57;84.24
65584;DHT22;70321;43.592;1.456;2023-06-01T06:39:07;18.68;84.51
65584;DHT22;70321;43.592;1.456;2023-06-01T06:41:32;18.70;83.59
65584;DHT22;70321;43.592;1.456;2023-06-01T06:43:58;18.64;83.59
65584;DHT22;70321;43.592;1.456;2023-06-01T06:46:23;18.71;83.65
65584;DHT22;70321;43.592;1.456;2023-06-01T06:48:49;18.68;83.20
65584;DHT22;70321;43.592;1.456;2023-06-01T06:51:14;18.65;82.98
65584;DHT22;70321;43.592;1.456;2023-06-01T06:53:40;18.63;83.41
65584;DHT22;70321;43.592;1.456;2023-06-01T06:56:05;18.59;82.78
65584;DHT22;70321;43.592;1.456;2023-06-01T06:58:31;18.51;83.04
65584;DHT22;70321;43.592;1.456;2023-06-01T07:00:56;18.47;83.15
65584;DHT22;70321;43.592;1.456;2023-06-01T07:03:22;18.53;83.40
65584;DHT22;70321;43.592;1.456;2023-06-01T07:05:47;18.59;83.82
65584;DHT22;70321;43.592;1.456;2023-06-01T07:08:13;18.68;84.15
65584;DHT22;70321;43.592;1.456;2023-06-01T07:10:39;18.77;83.94
65584;DHT22;70321;43.592;1.456;2023-06-01T07:13:04;18.77;83.77
65584;DHT22;70321;43.592;1.456;2023-06-01T07:15:30;18.75;83.21
65584;DHT22;70321;43.592;1.456;2023-06-01T07:17:55;18.85;83.70
65584;DHT22;70321;43.592;1.456;2023-06-01T07:20:21;18.91;83.75
65584;DHT22;70321;43.592;1.456;2023-06-01T07:22:46;18.95;84.19
65584;DHT22;70321;43.592;1.456;2023-06-01T07:25:13;18.90;83.46
65584;DHT22;70321;43.592;1.456;2023-06-01T07:27:39;18.92;83.64
65584;DHT22;70321;43.592;1.456;2023-06-01T07:30:09;18.95;83.58
65584;DHT22;70321;43.592;1.456;2023-06-01T07:32:34;19.00;83.56
65584;DHT22;70321;43.592;1.456;2023-06-01T07:35:00;19.07;83.61
65584;DHT22;70321;43.592;1.456;2023-06-01T07:37:27;19.12;82.64
65584;DHT22;70321;43.592;1.456;2023-06-01T07:39:55;19.16;82.72
65584;DHT22;70321;43.592;1.456;2023-06-01T07:42:20;19.18;82.10
65584;DHT22;70321;43.592;1.456;2023-06-01T07:44:46;19.19;81.96
65584;DHT22;70321;43.592;1.456;2023-06-01T07:47:11;19.15;81.02
65584;DHT22;70321;43.592;1.456;2023-06-01T07:49:37;19.22;81.91
65584;DHT22;70321;43.592;1.456;2023-06-01T07:52:03;19.14;81.13
65584;DHT22;70321;43.592;1.456;2023-06-01T07:54:30;19.25;81.89
65584;DHT22;70321;43.592;1.456;2023-06-01T07:56:56;19.28;81.51
65584;DHT22;70321;43.592;1.456;2023-06-01T07:59:22;19.26;81.42
65584;DHT22;70321;43.592;1.456;2023-06-01T08:01:49;19.26;80.56
65584;DHT22;70321;43.592;1.456;2023-06-01T08:04:15;19.22;81.53
65584;DHT22;70321;43.592;1.456;2023-06-01T08:06:42;19.26;81.47
65584;DHT22;70321;43.592;1.456;2023-06-01T08:09:08;19.26;81.64
65584;DHT22;70321;43.592;1.456;2023-06-01T08:11:35;19.36;81.78
65584;DHT22;70321;43.592;1.456;2023-06-01T08:14:01;19.42;81.37
65584;DHT22;70321;43.592;1.456;2023-06-01T08:16:28;19.45;81.02
65584;DHT22;70321;43.592;1.456;2023-06-01T08:18:54;19.49;81.10
65584;DHT22;70321;43.592;1.456;2023-06-01T08:21:24;19.58;81.33
65584;DHT22;70321;43.592;1.456;2023-06-01T08:23:51;19.59;81.55
65584;DHT22;70321;43.592;1.456;2023-06-01T08:26:18;19.63;80.85
65584;DHT22;70321;43.592;1.456;2023-06-01T08:28:44;19.67;81.26
65584;DHT22;70321;43.592;1.456;2023-06-01T08:31:19;19.72;80.98
65584;DHT22;70321;43.592;1.456;2023-06-01T08:33:46;19.82;81.18
65584;DHT22;70321;43.592;1.456;2023-06-01T08:36:11;19.86;81.11
65584;DHT22;70321;43.592;1.456;2023-06-01T08:38:37;19.92;80.71
65584;DHT22;70321;43.592;1.456;2023-06-01T08:43:54;20.05;79.24
65584;DHT22;70321;43.592;1.456;2023-06-01T08:46:21;20.07;79.82
65584;DHT22;70321;43.592;1.456;2023-06-01T08:48:50;20.06;78.93
65584;DHT22;70321;43.592;1.456;2023-06-01T08:51:17;20.13;78.20
65584;DHT22;70321;43.592;1.456;2023-06-01T08:53:45;20.19;79.06
65584;DHT22;70321;43.592;1.456;2023-06-01T08:56:11;20.27;79.08
65584;DHT22;70321;43.592;1.456;2023-06-01T08:58:36;20.27;76.91
65584;DHT22;70321;43.592;1.456;2023-06-01T09:01:02;20.34;77.20
65584;DHT22;70321;43.592;1.456;2023-06-01T09:03:27;20.36;76.39
65584;DHT22;70321;43.592;1.456;2023-06-01T09:05:53;20.31;75.84
65584;DHT22;70321;43.592;1.456;2023-06-01T09:08:18;20.36;76.71
65584;DHT22;70321;43.592;1.456;2023-06-01T09:10:44;20.33;75.59
65584;DHT22;70321;43.592;1.456;2023-06-01T09:13:09;20.36;75.86
65584;DHT22;70321;43.592;1.456;2023-06-01T09:15:34;20.33;75.43
65584;DHT22;70321;43.592;1.456;2023-06-01T09:18:08;20.37;76.28
65584;DHT22;70321;43.592;1.456;2023-06-01T09:20:35;20.39;76.42
65584;DHT22;70321;43.592;1.456;2023-06-01T09:23:02;20.43;75.28
65584;DHT22;70321;43.592;1.456;2023-06-01T09:25:32;20.43;75.16
65584;DHT22;70321;43.592;1.456;2023-06-01T09:27:59;20.43;74.91
65584;DHT22;70321;43.592;1.456;2023-06-01T09:30:40;20.44;73.64
65584;DHT22;70321;43.592;1.456;2023-06-01T09:33:09;20.45;73.78
65584;DHT22;70321;43.592;1.456;2023-06-01T09:35:47;20.44;72.47
65584;DHT22;70321;43.592;1.456;2023-06-01T09:38:21;20.36;72.59
65584;DHT22;70321;43.592;1.456;2023-06-01T09:43:22;20.41;72.38
65584;DHT22;70321;43.592;1.456;2023-06-01T09:46:07;20.45;73.11
65584;DHT22;70321;43.592;1.456;2023-06-01T09:48:33;20.51;72.19
65584;DHT22;70321;43.592;1.456;2023-06-01T09:50:58;20.55;72.50
65584;DHT22;70321;43.592;1.456;2023-06-01T09:53:25;20.64;72.65
65584;DHT22;70321;43.592;1.456;2023-06-01T09:56:01;20.68;73.17
65584;DHT22;70321;43.592;1.456;2023-06-01T09:58:27;20.84;72.59
65584;DHT22;70321;43.592;1.456;2023-06-01T10:00:53;20.95;72.77
65584;DHT22;70321;43.592;1.456;2023-06-01T10:03:21;21.06;71.35
65584;DHT22;70321;43.592;1.456;2023-06-01T10:05:47;21.12;71.42
65584;DHT22;70321;43.592;1.456;2023-06-01T10:08:16;21.19;71.30
65584;DHT22;70321;43.592;1.456;2023-06-01T10:10:45;21.26;70.35
65584;DHT22;70321;43.592;1.456;2023-06-01T10:13:11;21.31;69.35
65584;DHT22;70321;43.592;1.456;2023-06-01T10:15:37;21.38;70.59
65584;DHT22;70321;43.592;1.456;2023-06-01T10:18:04;21.46;69.51
65584;DHT22;70321;43.592;1.456;2023-06-01T10:20:34;21.49;68.73
65584;DHT22;70321;43.592;1.456;2023-06-01T10:23:00;21.52;68.74
65584;DHT22;70321;43.592;1.456;2023-06-01T10:25:29;21.55;66.65
65584;DHT22;70321;43.592;1.456;2023-06-01T10:27:59;21.55;68.32
65584;DHT22;70321;43.592;1.456;2023-06-01T10:30:26;21.69;68.37
65584;DHT22;70321;43.592;1.456;2023-06-01T10:32:51;21.78;68.51
65584;DHT22;70321;43.592;1.456;2023-06-01T10:40:43;22.06;64.39
65584;DHT22;70321;43.592;1.456;2023-06-01T10:48:57;22.03;65.86
65584;DHT22;70321;43.592;1.456;2023-06-01T10:51:23;22.07;65.50
65584;DHT22;70321;43.592;1.456;2023-06-01T10:53:53;22.20;65.38
65584;DHT22;70321;43.592;1.456;2023-06-01T10:56:24;22.25;65.59
65584;DHT22;70321;43.592;1.456;2023-06-01T11:01:33;22.45;63.66
65584;DHT22;70321;43.592;1.456;2023-06-01T11:03:59;22.45;63.96
65584;DHT22;70321;43.592;1.456;2023-06-01T11:06:31;22.36;64.06
65584;DHT22;70321;43.592;1.456;2023-06-01T11:09:00;22.30;63.80
65584;DHT22;70321;43.592;1.456;2023-06-01T11:14:24;22.17;63.31
65584;DHT22;70321;43.592;1.456;2023-06-01T11:16:50;22.12;63.72
65584;DHT22;70321;43.592;1.456;2023-06-01T11:19:24;22.12;64.78
65584;DHT22;70321;43.592;1.456;2023-06-01T11:22:00;22.07;64.69
65584;DHT22;70321;43.592;1.456;2023-06-01T11:24:33;22.12;65.14
65584;DHT22;70321;43.592;1.456;2023-06-01T11:27:01;22.16;64.52
65584;DHT22;70321;43.592;1.456;2023-06-01T11:29:32;22.24;64.43
65584;DHT22;70321;43.592;1.456;2023-06-01T11:31:59;22.34;65.63
65584;DHT22;70321;43.592;1.456;2023-06-01T11:36:57;22.74;64.74
65584;DHT22;70321;43.592;1.456;2023-06-01T11:39:24;22.94;64.27
65584;DHT22;70321;43.592;1.456;2023-06-01T11:41:52;22.95;64.44
65584;DHT22;70321;43.592;1.456;2023-06-01T11:44:18;22.94;62.81
65584;DHT22;70321;43.592;1.456;2023-06-01T11:46:55;22.97;62.87
65584;DHT22;70321;43.592;1.456;2023-06-01T11:49:21;23.04;61.65
65584;DHT22;70321;43.592;1.456;2023-06-01T11:51:47;23.05;61.90
65584;DHT22;70321;43.592;1.456;2023-06-01T11:54:13;23.19;61.14
65584;DHT22;70321;43.592;1.456;2023-06-01T11:56:39;23.25;61.38
65584;DHT22;70321;43.592;1.456;2023-06-01T11:59:05;23.32;61.69
65584;DHT22;70321;43.592;1.456;2023-06-01T12:01:34;23.43;61.55
65584;DHT22;70321;43.592;1.456;2023-06-01T12:04:02;23.45;60.85
65584;DHT22;70321;43.592;1.456;2023-06-01T12:06:28;23.45;61.84
65584;DHT22;70321;43.592;1.456;2023-06-01T12:08:55;23.43;61.77
65584;DHT22;70321;43.592;1.456;2023-06-01T12:11:25;23.41;61.29
65584;DHT22;70321;43.592;1.456;2023-06-01T12:13:54;23.33;61.52
65584;DHT22;70321;43.592;1.456;2023-06-01T12:16:23;23.26;61.69
65584;DHT22;70321;43.592;1.456;2023-06-01T12:18:51;23.23;61.51
65584;DHT22;70321;43.592;1.456;2023-06-01T12:21:16;23.19;62.18
65584;DHT22;70321;43.592;1.456;2023-06-01T12:23:51;23.15;61.83
65584;DHT22;70321;43.592;1.456;2023-06-01T12:26:17;23.15;62.09
65584;DHT22;70321;43.592;1.456;2023-06-01T12:28:53;23.12;62.22
65584;DHT22;70321;43.592;1.456;2023-06-01T12:31:20;23.05;60.66
65584;DHT22;70321;43.592;1.456;2023-06-01T12:33:46;23.05;61.63
65584;DHT22;70321;43.592;1.456;2023-06-01T12:36:33;23.08;62.46
65584;DHT22;70321;43.592;1.456;2023-06-01T12:39:00;23.11;61.55
65584;DHT22;70321;43.592;1.456;2023-06-01T12:41:27;23.15;61.53
65584;DHT22;70321;43.592;1.456;2023-06-01T12:43:53;23.12;62.26
65584;DHT22;70321;43.592;1.456;2023-06-01T12:46:21;23.14;60.87
65584;DHT22;70321;43.592;1.456;2023-06-01T12:48:48;23.18;61.44
65584;DHT22;70321;43.592;1.456;2023-06-01T12:51:14;23.20;62.42
65584;DHT22;70321;43.592;1.456;2023-06-01T12:53:40;23.23;62.24
65584;DHT22;70321;43.592;1.456;2023-06-01T12:56:07;23.20;63.41
65584;DHT22;70321;43.592;1.456;2023-06-01T12:58:33;23.18;63.78
65584;DHT22;70321;43.592;1.456;2023-06-01T13:00:58;23.22;62.16
65584;DHT22;70321;43.592;1.456;2023-06-01T13:03:24;23.19;62.03
65584;DHT22;70321;43.592;1.456;2023-06-01T13:05:49;23.15;61.38
65584;DHT22;70321;43.592;1.456;2023-06-01T13:08:16;23.09;62.17
65584;DHT22;70321;43.592;1.456;2023-06-01T13:10:43;23.05;62.00
65584;DHT22;70321;43.592;1.456;2023-06-01T13:13:09;23.08;63.41
65584;DHT22;70321;43.592;1.456;2023-06-01T13:15:42;23.11;63.98
65584;DHT22;70321;43.592;1.456;2023-06-01T13:18:08;23.11;63.25
65584;DHT22;70321;43.592;1.456;2023-06-01T13:20:34;23.12;63.29
65584;DHT22;70321;43.592;1.456;2023-06-01T13:23:00;23.19;61.51
65584;DHT22;70321;43.592;1.456;2023-06-01T13:25:25;23.26;63.14
65584;DHT22;70321;43.592;1.456;2023-06-01T13:27:51;23.35;60.93
65584;DHT22;70321;43.592;1.456;2023-06-01T13:30:16;23.33;60.46
65584;DHT22;70321;43.592;1.456;2023-06-01T13:32:43;23.42;61.44
65584;DHT22;70321;43.592;1.456;2023-06-01T13:35:08;23.53;59.41
65584;DHT22;70321;43.592;1.456;2023-06-01T13:37:39;23.55;58.65
65584;DHT22;70321;43.592;1.456;2023-06-01T13:40:05;23.56;59.35
65584;DHT22;70321;43.592;1.456;2023-06-01T13:42:31;23.50;58.10
65584;DHT22;70321;43.592;1.456;2023-06-01T13:44:58;23.43;59.34
65584;DHT22;70321;43.592;1.456;2023-06-01T13:47:23;23.39;58.33
65584;DHT22;70321;43.592;1.456;2023-06-01T13:49:49;23.33;58.96
65584;DHT22;70321;43.592;1.456;2023-06-01T13:52:14;23.32;60.07
65584;DHT22;70321;43.592;1.456;2023-06-01T13:54:40;23.28;59.47
65584;DHT22;70321;43.592;1.456;2023-06-01T13:57:06;23.25;60.22
65584;DHT22;70321;43.592;1.456;2023-06-01T13:59:33;23.26;60.54
65584;DHT22;70321;43.592;1.456;2023-06-01T14:02:01;23.23;58.76
65584;DHT22;70321;43.592;1.456;2023-06-01T14:04:27;23.25;60.44
65584;DHT22;70321;43.592;1.456;2023-06-01T14:06:52;23.30;60.54
65584;DHT22;70321;43.592;1.456;2023-06-01T14:09:18;23.25;60.17
65584;DHT22;70321;43.592;1.456;2023-06-01T14:11:44;23.23;61.75
65584;DHT22;70321;43.592;1.456;2023-06-01T14:14:09;23.26;61.50
65584;DHT22;70321;43.592;1.456;2023-06-01T14:16:36;23.30;60.78
65584;DHT22;70321;43.592;1.456;2023-06-01T14:19:02;23.39;60.12
65584;DHT22;70321;43.592;1.456;2023-06-01T14:21:28;23.49;60.78
65584;DHT22;70321;43.592;1.456;2023-06-01T14:23:55;23.65;60.34
65584;DHT22;70321;43.592;1.456;2023-06-01T14:26:21;23.77;58.29
65584;DHT22;70321;43.592;1.456;2023-06-01T14:28:46;23.92;60.03
65584;DHT22;70321;43.592;1.456;2023-06-01T14:31:12;24.00;57.72
65584;DHT22;70321;43.592;1.456;2023-06-01T14:33:37;23.90;56.80
65584;DHT22;70321;43.592;1.456;2023-06-01T14:36:03;23.87;56.80
65584;DHT22;70321;43.592;1.456;2023-06-01T14:38:30;23.80;58.13
65584;DHT22;70321;43.592;1.456;2023-06-01T14:40:55;23.70;56.86
65584;DHT22;70321;43.592;1.456;2023-06-01T14:43:20;23.69;57.97
65584;DHT22;70321;43.592;1.456;2023-06-01T14:45:46;23.66;57.75
65584;DHT22;70321;43.592;1.456;2023-06-01T14:48:11;23.60;58.36
65584;DHT22;70321;43.592;1.456;2023-06-01T14:50:37;23.62;58.13
65584;DHT22;70321;43.592;1.456;2023-06-01T14:53:02;23.62;60.31
65584;DHT22;70321;43.592;1.456;2023-06-01T14:55:28;23.62;59.76
65584;DHT22;70321;43.592;1.456;2023-06-01T14:57:54;23.62;59.48
65584;DHT22;70321;43.592;1.456;2023-06-01T15:00:20;23.65;59.72
65584;DHT22;70321;43.592;1.456;2023-06-01T15:02:46;23.60;56.80
65584;DHT22;70321;43.592;1.456;2023-06-01T15:05:12;23.65;58.14
65584;DHT22;70321;43.592;1.456;2023-06-01T15:07:37;23.67;57.59
65584;DHT22;70321;43.592;1.456;2023-06-01T15:10:03;23.73;56.44
65584;DHT22;70321;43.592;1.456;2023-06-01T15:12:29;23.77;56.35
65584;DHT22;70321;43.592;1.456;2023-06-01T15:14:54;23.76;56.18
65584;DHT22;70321;43.592;1.456;2023-06-01T15:17:19;23.80;56.08
65584;DHT22;70321;43.592;1.456;2023-06-01T15:19:45;23.80;56.42
65584;DHT22;70321;43.592;1.456;2023-06-01T15:22:12;23.83;56.35
65584;DHT22;70321;43.592;1.456;2023-06-01T15:24:37;23.89;56.88
65584;DHT22;70321;43.592;1.456;2023-06-01T15:27:05;23.94;56.22
65584;DHT22;70321;43.592;1.456;2023-06-01T15:29:31;24.03;56.55
65584;DHT22;70321;43.592;1.456;2023-06-01T15:31:56;24.04;57.16
65584;DHT22;70321;43.592;1.456;2023-06-01T15:34:22;24.02;56.53
65584;DHT22;70321;43.592;1.456;2023-06-01T15:36:47;23.96;57.51
65584;DHT22;70321;43.592;1.456;2023-06-01T15:39:13;23.94;57.25
65584;DHT22;70321;43.592;1.456;2023-06-01T15:41:40;23.94;58.18
65584;DHT22;70321;43.592;1.456;2023-06-01T15:44:06;23.96;57.81
65584;DHT22;70321;43.592;1.456;2023-06-01T15:46:31;23.93;58.71
65584;DHT22;70321;43.592;1.456;2023-06-01T15:48:58;23.83;57.93
65584;DHT22;70321;43.592;1.456;2023-06-01T15:51:23;23.79;58.06
65584;DHT22;70321;43.592;1.456;2023-06-01T15:53:49;23.77;58.00
65584;DHT22;70321;43.592;1.456;2023-06-01T15:56:16;23.74;58.26
65584;DHT22;70321;43.592;1.456;2023-06-01T15:58:42;23.76;58.21
65584;DHT22;70321;43.592;1.456;2023-06-01T16:01:10;23.76;59.48
65584;DHT22;70321;43.592;1.456;2023-06-01T16:03:36;23.76;58.21
65584;DHT22;70321;43.592;1.456;2023-06-01T16:06:01;23.72;58.21